Kingsland, GA

8:50 PM EDT on October 24, 2014 (GMT -0400)
TractorMan, Peeples Rd. | Change Station
CLOSE
Current Station
Personal Weather Station
Location: Kingsland, GA
Elevation: 34 ft
Nearby Weather Stations

Elev 34 ft 30.77 °N, 81.73 °W | Updated 4 seconds ago

Clear
Clear
56.0 °F
Feels Like 56.0 °F
N
0.0
Wind Variable Wind from ESE
Gusts 0.0 mph

Today
High -- | Low -- °F
--% Chance of Precip.
Yesterday
High -- | Low -- °F
Precip. -- in
7:35 AM 6:45 PM
New Moon, 1% visible
Pressure 29.98 in
Visibility 10.0 miles
Clouds Clear
Dew Point 54 °F
Humidity 92%
Rainfall 0.00 in
Snow Depth Not available.
UV 0 out of 12
Pollen 4.40 out of 12
Air Quality Not available.
Flu Activity Sporadic
METAR KFHB 250035Z AUTO 00000KT 10SM CLR 18/13 A2998 RMK AO1

More Conditions Fewer Conditions

Pressure 29.98 in
Visibility 10.0 miles
Clouds Clear
Dew Point 54 °F
Humidity 92%
Rainfall 0.00 in
Snow Depth Not available.
UV 0 out of 12
Pollen 4.40 out of 12
Air Quality Not available.
Flu Activity Sporadic
METAR KFHB 250035Z AUTO 00000KT 10SM CLR 18/13 A2998 RMK AO1

More Conditions Fewer Conditions

10-Day Weather Forecast

Almanac

Astronomy

Oct. 24, 2014 Rise Set
Actual Time 7:35 AM EDT 6:45 PM EDT
Civil Twilight 7:11 AM EDT 7:10 PM EDT
Nautical Twilight 6:42 AM EDT 7:38 PM EDT
Astronomical Twilight 6:14 AM EDT 8:06 PM EDT
Moon 8:11 AM EDT (10/24) 7:28 PM EDT (10/24)
Length of Visible Light 11h 59m
Length of Day
11h 10m
Tomorrow will be 1m 43s shorter.
New Moon, 1% of the Moon is Illuminated
Today
New Moon
Oct 30
First Quarter
Nov 6
Full
Nov 14
Last Quarter
Nov 22
New

Today's Extremes

State Highs State Lows

Community

WunderPhotos

Upload Photos

1,764,735 photos uploaded!

WunderBlogs® & News

Nearby

Snow Depth

Station Depth Elevation
No new snow has been reported.

Earthquake Activity

City Distance Mag. Time & Date
No recent earthquake activity has been reported nearby.
Minimum magnitude displayed is 2.5.

Coastal Water Temperatures

Place Temperature
Fernandina Beach, FL 73.0 °F
Mayport (Bar Pilots Dock), FL 75.9 °F

Nearby Weather Stations